Time;durP1;ratioP1;P1;durP2;ratioP2;P2;SDS_P1;SDS_P2;PMS_P1;PMS_P2;Temp;Humidity;BMP_temperature;BMP_pressure;BME280_temperature;BME280_humidity;BME280_pressure;Samples;Min_cycle;Max_cycle;Signal;HPM_P1;HPM_P2
2021/09/22 00:00:23;;;;;;;20.40;12.68;;;13.40;99.90;;;;;;5093501;28;20044;-69
2021/09/22 00:02:49;;;;;;;21.45;15.02;;;13.40;99.90;;;;;;5095063;28;20047;-69
2021/09/22 00:05:15;;;;;;;19.02;13.18;;;13.40;99.90;;;;;;5094685;28;20036;-69
2021/09/22 00:07:41;;;;;;;18.50;13.85;;;13.40;99.90;;;;;;5094566;28;20484;-69
2021/09/22 00:10:12;;;;;;;19.95;13.82;;;13.30;99.90;;;;;;5093973;28;20476;-69
2021/09/22 00:12:38;;;;;;;16.83;13.32;;;13.30;99.90;;;;;;5094800;28;20479;-69
2021/09/22 00:15:07;;;;;;;21.25;14.48;;;13.30;99.90;;;;;;5093268;28;20046;-69
2021/09/22 00:17:33;;;;;;;22.67;13.98;;;13.30;99.90;;;;;;5094048;28;20468;-69
2021/09/22 00:19:59;;;;;;;20.25;14.18;;;13.30;99.90;;;;;;5094151;28;20039;-69
2021/09/22 00:22:25;;;;;;;21.88;13.43;;;13.30;99.90;;;;;;5094380;28;20035;-69
2021/09/22 00:24:51;;;;;;;17.88;13.27;;;13.30;99.90;;;;;;5094443;28;20361;-69
2021/09/22 00:27:17;;;;;;;17.77;13.18;;;13.30;99.90;;;;;;5092790;28;20051;-69
2021/09/22 00:29:42;;;;;;;17.27;13.63;;;13.20;99.90;;;;;;5092691;28;20048;-69
2021/09/22 00:32:08;;;;;;;21.92;12.85;;;13.20;99.90;;;;;;5094045;28;20428;-69
2021/09/22 00:34:33;;;;;;;19.75;12.95;;;13.20;99.90;;;;;;5094129;28;20044;-69
2021/09/22 00:36:59;;;;;;;22.63;13.18;;;13.20;99.90;;;;;;5093898;28;20066;-69
2021/09/22 00:39:25;;;;;;;19.13;12.73;;;13.20;99.90;;;;;;5093602;28;20036;-69
2021/09/22 00:41:50;;;;;;;18.30;13.43;;;13.20;99.90;;;;;;5093915;28;20149;-69
2021/09/22 00:44:16;;;;;;;20.15;12.90;;;13.10;99.90;;;;;;5093754;28;20048;-69
2021/09/22 00:46:42;;;;;;;20.15;13.27;;;13.20;99.90;;;;;;5092687;28;20047;-69
2021/09/22 00:49:07;;;;;;;19.67;13.85;;;13.10;99.90;;;;;;5093332;28;20036;-69
2021/09/22 00:51:33;;;;;;;18.83;13.45;;;13.20;99.90;;;;;;5092831;28;20472;-69
2021/09/22 00:53:59;;;;;;;18.67;12.85;;;13.10;99.90;;;;;;5093713;28;20496;-69
2021/09/22 00:56:25;;;;;;;15.98;11.63;;;13.10;99.90;;;;;;5094027;28;20043;-69
2021/09/22 00:58:50;;;;;;;17.92;12.48;;;13.10;99.90;;;;;;5093816;28;20035;-69
2021/09/22 01:01:18;;;;;;;20.02;13.63;;;13.10;99.90;;;;;;5092211;28;20067;-69
2021/09/22 01:03:43;;;;;;;18.50;13.48;;;13.10;99.90;;;;;;5093610;28;20032;-69
2021/09/22 01:06:09;;;;;;;17.17;11.25;;;13.10;99.90;;;;;;5093576;28;20035;-69
2021/09/22 01:08:36;;;;;;;19.85;12.63;;;13.10;99.90;;;;;;5093256;28;20040;-69
2021/09/22 01:11:02;;;;;;;18.60;14.48;;;13.10;99.90;;;;;;5093763;28;20153;-69
2021/09/22 01:13:27;;;;;;;18.52;13.50;;;13.00;99.90;;;;;;5093285;28;20453;-69
2021/09/22 01:15:53;;;;;;;17.27;13.15;;;13.00;99.90;;;;;;5093044;28;20075;-69
2021/09/22 01:18:22;;;;;;;19.60;13.52;;;13.00;99.90;;;;;;5093437;28;20131;-69
2021/09/22 01:20:52;;;;;;;17.23;12.05;;;13.00;99.90;;;;;;5093237;28;20075;-69
2021/09/22 01:23:18;;;;;;;18.95;13.02;;;13.00;99.90;;;;;;5093519;28;20073;-69
2021/09/22 01:25:47;;;;;;;15.88;12.38;;;13.00;99.90;;;;;;5092193;28;20043;-69
2021/09/22 01:28:13;;;;;;;18.77;12.95;;;13.00;99.90;;;;;;5093315;28;20067;-69
2021/09/22 01:30:40;;;;;;;20.08;12.52;;;13.00;99.90;;;;;;5092852;28;20032;-69
2021/09/22 01:33:09;;;;;;;20.63;12.77;;;13.00;99.90;;;;;;5093246;28;20480;-69
2021/09/22 01:35:37;;;;;;;18.02;12.55;;;13.00;99.90;;;;;;5091894;28;20079;-69
2021/09/22 01:38:09;;;;;;;19.38;13.07;;;13.00;99.90;;;;;;5091858;28;20079;-70
2021/09/22 01:40:35;;;;;;;16.17;13.40;;;13.00;99.90;;;;;;5092807;28;20043;-72
2021/09/22 01:43:02;;;;;;;17.25;13.10;;;13.00;99.90;;;;;;5092782;28;20476;-72
2021/09/22 01:45:27;;;;;;;16.80;11.38;;;12.90;99.90;;;;;;5093111;28;20051;-72
2021/09/22 01:47:53;;;;;;;14.15;10.13;;;12.90;99.90;;;;;;5092445;28;20048;-72
2021/09/22 01:50:21;;;;;;;12.98;9.95;;;12.80;99.90;;;;;;5091968;28;20458;-72
2021/09/22 01:52:50;;;;;;;12.43;8.55;;;12.80;99.90;;;;;;5093439;28;20104;-72
2021/09/22 01:55:17;;;;;;;14.50;9.10;;;12.80;99.90;;;;;;5093006;28;20032;-72
2021/09/22 01:57:43;;;;;;;9.70;8.25;;;12.70;99.90;;;;;;5093036;28;20047;-72
2021/09/22 02:00:09;;;;;;;9.68;7.55;;;12.70;99.90;;;;;;5092941;28;20028;-72
2021/09/22 02:02:35;;;;;;;9.52;7.53;;;12.60;99.90;;;;;;5093142;28;20032;-71
2021/09/22 02:05:01;;;;;;;9.35;6.90;;;12.60;99.90;;;;;;5093138;28;20115;-72
2021/09/22 02:07:27;;;;;;;7.05;5.88;;;12.50;99.90;;;;;;5093341;28;20051;-72
2021/09/22 02:09:53;;;;;;;7.82;5.47;;;12.40;99.90;;;;;;5092717;28;20396;-72
2021/09/22 02:12:18;;;;;;;9.20;6.43;;;12.40;99.90;;;;;;5091695;28;20051;-72
2021/09/22 02:14:44;;;;;;;6.55;5.72;;;12.40;99.90;;;;;;5093179;28;20090;-72
2021/09/22 02:17:09;;;;;;;7.78;6.90;;;12.30;99.90;;;;;;5091611;28;20046;-72
2021/09/22 02:19:35;;;;;;;9.68;7.78;;;12.20;99.90;;;;;;5091463;28;20507;-72
2021/09/22 02:22:01;;;;;;;13.10;8.40;;;12.20;99.90;;;;;;5093339;28;20402;-72
2021/09/22 02:24:26;;;;;;;8.88;7.85;;;12.20;99.90;;;;;;5094511;28;20032;-72
2021/09/22 02:26:52;;;;;;;10.38;8.85;;;12.20;99.90;;;;;;5096400;28;20050;-72
2021/09/22 02:29:19;;;;;;;10.10;8.98;;;12.20;99.90;;;;;;5095092;28;20075;-72
2021/09/22 02:31:48;;;;;;;8.45;7.40;;;12.20;99.90;;;;;;5096579;28;20051;-72
2021/09/22 02:34:15;;;;;;;8.93;8.02;;;12.20;99.90;;;;;;5094969;28;20040;-72
2021/09/22 02:36:41;;;;;;;8.40;7.60;;;12.10;99.90;;;;;;5096764;28;20092;-72
2021/09/22 02:39:08;;;;;;;7.57;6.88;;;12.10;99.90;;;;;;5094684;28;20119;-72
2021/09/22 02:41:34;;;;;;;8.00;7.20;;;12.10;99.90;;;;;;5095003;28;20051;-72
2021/09/22 02:44:00;;;;;;;8.80;7.90;;;12.10;99.90;;;;;;5096499;28;20434;-72
2021/09/22 02:46:27;;;;;;;8.18;7.07;;;12.00;99.90;;;;;;5096388;28;20388;-72
2021/09/22 02:48:53;;;;;;;10.07;9.00;;;12.00;99.90;;;;;;5095783;28;20036;-72
2021/09/22 02:51:19;;;;;;;10.75;9.65;;;11.90;99.90;;;;;;5096003;28;20043;-72
2021/09/22 02:53:44;;;;;;;13.18;10.15;;;11.90;99.90;;;;;;5095354;28;20032;-72
2021/09/22 02:56:10;;;;;;;10.43;9.35;;;11.80;99.90;;;;;;5095899;28;20044;-72
2021/09/22 02:58:35;;;;;;;12.70;10.95;;;11.80;99.90;;;;;;5094421;28;20040;-72
2021/09/22 03:01:01;;;;;;;10.73;9.63;;;11.80;99.90;;;;;;5095889;28;20040;-72
2021/09/22 03:03:27;;;;;;;11.05;9.95;;;11.70;99.90;;;;;;5096004;28;20119;-71
2021/09/22 03:05:53;;;;;;;11.65;10.45;;;11.70;99.90;;;;;;5094628;28;20487;-72
2021/09/22 03:08:19;;;;;;;11.82;10.63;;;11.70;99.90;;;;;;5096240;28;20036;-71
2021/09/22 03:10:44;;;;;;;10.88;9.77;;;11.70;99.90;;;;;;5095232;28;20357;-72
2021/09/22 03:13:10;;;;;;;12.20;10.90;;;11.60;99.90;;;;;;5094146;28;20046;-72
2021/09/22 03:15:36;;;;;;;12.50;11.27;;;11.60;99.90;;;;;;5095319;28;20036;-72
2021/09/22 03:18:02;;;;;;;11.55;10.35;;;11.60;99.90;;;;;;5093820;28;20048;-72
2021/09/22 03:20:27;;;;;;;11.63;10.43;;;11.60;99.90;;;;;;5093766;28;20059;-72
2021/09/22 03:22:53;;;;;;;11.50;10.30;;;11.50;99.90;;;;;;5095941;28;20032;-72
2021/09/22 03:25:18;;;;;;;12.20;11.00;;;11.50;99.90;;;;;;5094335;28;20044;-71
2021/09/22 03:27:44;;;;;;;12.15;10.85;;;11.50;99.90;;;;;;5095311;28;20404;-72
2021/09/22 03:30:11;;;;;;;14.48;12.93;;;11.50;99.90;;;;;;5093653;28;20089;-72
2021/09/22 03:32:37;;;;;;;14.20;12.70;;;11.60;99.90;;;;;;5095914;28;20036;-72
2021/09/22 03:35:03;;;;;;;13.05;11.32;;;11.60;99.90;;;;;;5095560;28;20123;-72
2021/09/22 03:37:28;;;;;;;15.43;13.25;;;11.60;99.90;;;;;;5094187;28;20048;-71
2021/09/22 03:39:54;;;;;;;15.32;12.30;;;11.60;99.90;;;;;;5094805;28;20086;-72
2021/09/22 03:42:20;;;;;;;13.85;12.50;;;11.60;99.90;;;;;;5094180;28;20036;-72
2021/09/22 03:44:45;;;;;;;13.90;12.40;;;11.70;99.90;;;;;;5094983;28;20032;-72
2021/09/22 03:47:11;;;;;;;14.18;12.60;;;11.70;99.90;;;;;;5095199;28;20074;-72
2021/09/22 03:49:37;;;;;;;14.65;12.68;;;11.70;99.90;;;;;;5093561;28;20484;-71
2021/09/22 03:52:03;;;;;;;14.65;12.75;;;11.70;99.90;;;;;;5093992;28;20043;-72
2021/09/22 03:54:28;;;;;;;13.50;11.52;;;11.70;99.90;;;;;;5094735;28;20085;-72
2021/09/22 03:56:54;;;;;;;13.18;11.75;;;11.70;99.90;;;;;;5093297;28;20044;-72
2021/09/22 03:59:19;;;;;;;13.50;12.13;;;11.70;99.90;;;;;;5094399;28;20149;-71
2021/09/22 04:01:45;;;;;;;13.90;12.45;;;11.70;99.90;;;;;;5094739;28;20032;-71
2021/09/22 04:04:11;;;;;;;12.88;11.57;;;11.70;99.90;;;;;;5094575;28;20036;-72
2021/09/22 04:06:37;;;;;;;13.35;11.43;;;11.70;99.90;;;;;;5093168;28;20571;-72
2021/09/22 04:09:04;;;;;;;13.13;11.70;;;11.70;99.90;;;;;;5093444;28;20071;-72
2021/09/22 04:11:30;;;;;;;15.18;11.40;;;11.80;99.90;;;;;;5093014;28;20492;-72
2021/09/22 04:13:55;;;;;;;12.18;10.90;;;11.80;99.90;;;;;;5093492;28;20051;-72
2021/09/22 04:16:21;;;;;;;13.68;10.98;;;11.80;99.90;;;;;;5094620;28;20032;-72
2021/09/22 04:18:46;;;;;;;13.77;12.32;;;11.80;99.90;;;;;;5094259;28;20542;-72
2021/09/22 04:21:12;;;;;;;13.10;11.80;;;11.80;99.90;;;;;;5094400;28;20036;-72
2021/09/22 04:23:38;;;;;;;12.43;11.02;;;11.80;99.90;;;;;;5093105;28;20075;-71
2021/09/22 04:26:03;;;;;;;13.35;11.60;;;11.80;99.90;;;;;;5092686;28;20472;-72
2021/09/22 04:28:29;;;;;;;14.55;12.63;;;11.80;99.90;;;;;;5092826;28;20048;-72
2021/09/22 04:30:55;;;;;;;15.82;13.00;;;11.70;99.90;;;;;;5093890;28;20088;-72
2021/09/22 04:33:20;;;;;;;15.93;13.45;;;11.80;99.90;;;;;;5093058;28;20032;-72
2021/09/22 04:35:46;;;;;;;17.15;13.85;;;11.70;99.90;;;;;;5075965;28;20480;-72
2021/09/22 04:38:12;;;;;;;16.00;13.57;;;11.70;99.90;;;;;;5093713;28;20043;-72
2021/09/22 04:40:38;;;;;;;16.10;14.20;;;11.80;99.90;;;;;;5093694;28;20036;-72
2021/09/22 04:43:04;;;;;;;18.08;14.90;;;11.80;99.90;;;;;;5075864;28;20044;-72
2021/09/22 04:45:29;;;;;;;18.83;15.20;;;11.80;99.90;;;;;;5094332;28;20562;-72
2021/09/22 04:47:56;;;;;;;20.80;15.73;;;11.90;99.90;;;;;;5093501;28;20032;-72
2021/09/22 04:50:23;;;;;;;24.23;17.55;;;11.90;99.90;;;;;;5093410;28;20094;-72
2021/09/22 04:52:49;;;;;;;30.13;20.67;;;11.90;99.90;;;;;;5093917;28;20039;-72
2021/09/22 04:55:15;;;;;;;22.27;18.65;;;12.00;99.90;;;;;;5093701;28;20050;-72
2021/09/22 04:57:41;;;;;;;27.60;19.08;;;12.00;99.90;;;;;;5092209;28;20048;-72
2021/09/22 05:00:08;;;;;;;24.80;18.48;;;12.10;99.90;;;;;;5093603;28;20039;-72
2021/09/22 05:02:34;;;;;;;22.92;18.73;;;12.10;99.90;;;;;;5093405;28;20028;-72
2021/09/22 05:05:00;;;;;;;24.70;18.08;;;12.10;99.90;;;;;;5092754;28;20047;-72
2021/09/22 05:07:25;;;;;;;21.83;16.92;;;12.20;99.90;;;;;;5093572;28;20488;-72
2021/09/22 05:09:51;;;;;;;21.30;15.93;;;12.20;99.90;;;;;;5092316;28;20101;-72
2021/09/22 05:12:17;;;;;;;19.23;15.80;;;12.10;99.90;;;;;;5092301;28;20502;-72
2021/09/22 05:14:44;;;;;;;22.40;15.57;;;12.10;99.90;;;;;;5092142;28;20047;-72
2021/09/22 05:17:10;;;;;;;20.23;15.35;;;12.10;99.90;;;;;;5093952;28;20050;-72
2021/09/22 05:19:36;;;;;;;21.23;15.93;;;12.10;99.90;;;;;;5093085;28;20036;-72
2021/09/22 05:22:03;;;;;;;21.63;16.10;;;12.10;99.90;;;;;;5093206;28;20120;-72
2021/09/22 05:24:28;;;;;;;21.77;16.88;;;12.10;99.90;;;;;;5092014;28;20111;-72
2021/09/22 05:26:54;;;;;;;21.88;16.58;;;12.10;99.90;;;;;;5092671;28;20115;-72
2021/09/22 05:29:19;;;;;;;22.88;17.48;;;12.20;99.90;;;;;;5091942;28;20115;-72
2021/09/22 05:31:45;;;;;;;25.98;19.08;;;12.20;99.90;;;;;;5091869;28;20039;-72
2021/09/22 05:34:11;;;;;;;31.05;22.05;;;12.20;99.90;;;;;;5093552;28;20059;-72
2021/09/22 05:36:37;;;;;;;25.73;18.60;;;12.20;99.90;;;;;;5093254;28;20132;-72
2021/09/22 05:39:04;;;;;;;27.40;21.65;;;12.20;99.90;;;;;;5092919;28;20499;-72
2021/09/22 05:41:30;;;;;;;33.00;24.40;;;12.20;99.90;;;;;;5093257;28;20036;-72
2021/09/22 05:43:55;;;;;;;38.08;25.95;;;12.20;99.90;;;;;;5093268;28;20392;-72
2021/09/22 05:46:21;;;;;;;37.60;25.80;;;12.30;99.90;;;;;;5093283;28;20051;-72
2021/09/22 05:48:47;;;;;;;39.08;25.60;;;12.30;99.90;;;;;;5092870;28;20465;-72
2021/09/22 05:51:13;;;;;;;40.95;26.95;;;12.30;99.90;;;;;;5092085;28;20546;-72
2021/09/22 05:53:40;;;;;;;34.97;25.17;;;12.30;99.90;;;;;;5093359;28;20043;-72
2021/09/22 05:56:06;;;;;;;33.63;23.85;;;12.30;99.90;;;;;;5093639;28;20112;-71
2021/09/22 05:58:31;;;;;;;31.48;23.05;;;12.30;99.90;;;;;;5093461;28;20443;-71
2021/09/22 06:00:59;;;;;;;32.10;23.83;;;12.30;99.90;;;;;;5096388;28;20109;-71
2021/09/22 06:03:24;;;;;;;32.08;23.80;;;12.30;99.90;;;;;;5097413;28;20503;-72
2021/09/22 06:05:50;;;;;;;25.15;20.15;;;12.40;99.90;;;;;;5095636;28;20044;-71
2021/09/22 06:08:16;;;;;;;33.17;23.85;;;12.40;99.90;;;;;;5096916;28;20411;-70
2021/09/22 06:10:43;;;;;;;33.13;24.50;;;12.40;99.90;;;;;;5096438;28;20040;-70
2021/09/22 06:13:09;;;;;;;34.47;23.70;;;12.50;99.90;;;;;;5096672;28;20568;-70
2021/09/22 06:15:34;;;;;;;33.70;24.88;;;12.50;99.90;;;;;;5096658;28;20114;-70
2021/09/22 06:18:00;;;;;;;34.30;25.25;;;12.50;99.90;;;;;;5097167;28;20040;-70
2021/09/22 06:20:26;;;;;;;35.85;23.38;;;12.50;99.90;;;;;;5095125;28;20054;-70
2021/09/22 06:22:51;;;;;;;34.03;24.63;;;12.60;99.90;;;;;;5096688;28;20039;-70
2021/09/22 06:25:17;;;;;;;32.05;22.73;;;12.60;99.90;;;;;;5096692;28;20032;-70
2021/09/22 06:27:43;;;;;;;33.83;24.15;;;12.60;99.90;;;;;;5095172;28;20590;-70
2021/09/22 06:30:09;;;;;;;35.75;25.65;;;12.60;99.90;;;;;;5094901;28;20500;-70
2021/09/22 06:32:36;;;;;;;32.28;24.50;;;12.70;99.90;;;;;;5096253;28;20044;-70
2021/09/22 06:35:03;;;;;;;29.85;22.80;;;12.80;99.90;;;;;;5095175;28;20054;-70
2021/09/22 06:37:29;;;;;;;35.03;25.67;;;12.70;99.90;;;;;;5096391;28;20047;-70
2021/09/22 06:39:55;;;;;;;40.58;27.23;;;12.80;99.90;;;;;;5094891;28;20032;-71
2021/09/22 06:42:20;;;;;;;41.63;28.67;;;12.80;99.90;;;;;;5095990;28;20392;-70
2021/09/22 06:44:46;;;;;;;36.67;26.52;;;12.80;99.90;;;;;;5096285;28;20043;-70
2021/09/22 06:47:11;;;;;;;38.28;26.55;;;12.80;99.90;;;;;;5095265;28;20060;-70
2021/09/22 06:49:37;;;;;;;40.28;27.23;;;12.80;99.90;;;;;;5095976;28;20043;-71
2021/09/22 06:52:03;;;;;;;44.15;28.80;;;12.80;99.90;;;;;;5096173;28;20459;-70
2021/09/22 06:54:28;;;;;;;32.53;23.15;;;12.90;99.90;;;;;;5096259;28;20081;-71
2021/09/22 06:56:54;;;;;;;39.35;26.38;;;13.00;99.90;;;;;;5095701;28;20048;-70
2021/09/22 06:59:20;;;;;;;33.03;24.77;;;13.00;99.90;;;;;;5095493;28;20051;-70
2021/09/22 07:01:45;;;;;;;30.10;23.40;;;13.10;99.90;;;;;;5077555;28;20051;-70
2021/09/22 07:04:11;;;;;;;43.67;26.95;;;13.20;99.90;;;;;;5096136;28;20040;-70
2021/09/22 07:06:37;;;;;;;36.42;24.95;;;13.20;99.90;;;;;;5096080;28;20040;-69
2021/09/22 07:09:03;;;;;;;42.58;25.48;;;13.30;99.90;;;;;;5095483;28;20055;-70
2021/09/22 07:11:28;;;;;;;34.08;24.67;;;13.30;99.90;;;;;;5094170;28;20047;-70
2021/09/22 07:13:54;;;;;;;30.67;22.55;;;13.30;99.90;;;;;;5095485;28;20395;-70
2021/09/22 07:16:20;;;;;;;27.02;20.65;;;13.30;99.90;;;;;;5095287;28;20032;-70
2021/09/22 07:18:46;;;;;;;26.58;20.02;;;13.40;99.90;;;;;;5095224;28;20052;-70
2021/09/22 07:21:14;;;;;;;29.45;20.67;;;13.50;99.90;;;;;;5094005;28;20040;-70
2021/09/22 07:23:40;;;;;;;23.10;18.05;;;13.70;99.90;;;;;;5095447;28;20051;-70
2021/09/22 07:26:07;;;;;;;20.30;16.83;;;13.70;99.90;;;;;;5094183;28;20480;-70
2021/09/22 07:28:34;;;;;;;21.92;17.65;;;13.80;99.90;;;;;;5094849;28;20040;-70
2021/09/22 07:30:59;;;;;;;22.13;17.00;;;13.90;99.90;;;;;;5095262;28;20048;-70
2021/09/22 07:33:25;;;;;;;24.13;18.48;;;13.90;99.90;;;;;;5095557;28;20047;-70
2021/09/22 07:35:51;;;;;;;23.63;17.83;;;13.90;99.90;;;;;;5095570;28;20035;-70
2021/09/22 07:38:17;;;;;;;25.45;18.10;;;13.90;99.90;;;;;;5094838;28;20063;-70
2021/09/22 07:40:43;;;;;;;26.98;18.38;;;14.00;99.90;;;;;;5093521;28;20117;-68
2021/09/22 07:43:09;;;;;;;28.75;20.08;;;14.00;99.90;;;;;;5095479;28;20040;-68
2021/09/22 07:45:35;;;;;;;23.05;17.10;;;14.00;99.90;;;;;;5094761;28;20043;-68
2021/09/22 07:48:01;;;;;;;23.70;17.60;;;14.00;99.90;;;;;;5095026;28;20062;-68
2021/09/22 07:50:27;;;;;;;24.73;17.42;;;14.00;99.90;;;;;;5094942;28;20453;-69
2021/09/22 07:52:53;;;;;;;19.55;17.25;;;14.20;99.90;;;;;;5095387;28;20363;-69
2021/09/22 07:55:19;;;;;;;27.13;18.17;;;14.40;99.90;;;;;;5094888;28;20043;-69
2021/09/22 07:57:45;;;;;;;20.40;16.45;;;14.50;99.90;;;;;;5094529;28;20040;-69
2021/09/22 08:00:11;;;;;;;21.98;17.65;;;14.60;99.90;;;;;;5094437;28;20047;-70
2021/09/22 08:02:38;;;;;;;23.65;17.80;;;14.60;99.90;;;;;;5093263;28;20040;-70
2021/09/22 08:05:05;;;;;;;22.90;19.45;;;14.70;99.90;;;;;;5093663;28;20043;-70
2021/09/22 08:07:30;;;;;;;24.00;19.45;;;15.00;99.90;;;;;;5093706;28;20048;-70
2021/09/22 08:09:56;;;;;;;22.10;17.23;;;15.10;99.90;;;;;;5094257;28;20101;-69
2021/09/22 08:12:21;;;;;;;21.98;17.90;;;15.20;99.90;;;;;;5094345;28;20071;-70
2021/09/22 08:14:47;;;;;;;25.50;18.73;;;15.20;99.90;;;;;;5093246;28;20123;-68
2021/09/22 08:17:14;;;;;;;26.23;19.35;;;15.20;99.90;;;;;;5093129;28;20074;-70
2021/09/22 08:19:41;;;;;;;27.08;20.20;;;15.30;99.90;;;;;;5092767;28;20040;-70
2021/09/22 08:22:07;;;;;;;28.63;19.35;;;15.30;99.90;;;;;;5093903;28;20036;-70
2021/09/22 08:24:33;;;;;;;30.63;21.20;;;15.30;99.90;;;;;;5094310;28;20059;-70
2021/09/22 08:27:43;;;;;;;31.83;21.92;;;15.30;99.90;;;;;;5094101;28;20094;-70
2021/09/22 08:30:11;;;;;;;27.23;21.05;;;15.30;99.90;;;;;;5093871;28;20047;-69
2021/09/22 08:32:37;;;;;;;32.75;23.08;;;15.30;99.90;;;;;;5094202;28;20040;-70
2021/09/22 08:35:03;;;;;;;33.53;24.05;;;15.30;99.90;;;;;;5093982;28;20036;-70
2021/09/22 08:37:29;;;;;;;30.75;21.70;;;15.30;99.90;;;;;;5092569;28;20476;-70
2021/09/22 08:39:54;;;;;;;37.33;25.02;;;15.30;99.90;;;;;;5093828;28;20392;-70
2021/09/22 08:42:20;;;;;;;36.28;25.63;;;15.30;99.90;;;;;;5092569;28;20040;-70
2021/09/22 08:44:49;;;;;;;33.42;24.23;;;15.40;99.90;;;;;;5092592;28;20101;-70
2021/09/22 08:47:15;;;;;;;34.75;24.92;;;15.50;99.90;;;;;;5094026;28;20040;-70
2021/09/22 08:49:41;;;;;;;41.92;26.08;;;15.50;99.90;;;;;;5093564;28;20085;-70
2021/09/22 08:52:06;;;;;;;36.63;24.55;;;15.50;99.90;;;;;;5093859;28;20907;-70
2021/09/22 08:54:32;;;;;;;43.08;26.48;;;15.60;99.90;;;;;;5094141;28;20039;-70
2021/09/22 08:57:01;;;;;;;34.70;24.75;;;15.60;99.90;;;;;;5094001;28;20453;-70
2021/09/22 08:59:27;;;;;;;41.38;26.08;;;15.70;99.90;;;;;;5093407;28;20119;-70
2021/09/22 09:02:11;;;;;;;39.78;26.98;;;15.80;99.90;;;;;;5093672;28;20523;-70
2021/09/22 09:04:39;;;;;;;38.92;26.08;;;15.90;99.90;;;;;;5092274;28;20071;-70
2021/09/22 09:07:05;;;;;;;38.78;25.70;;;15.90;99.90;;;;;;5093468;28;20475;-70
2021/09/22 09:09:32;;;;;;;43.55;27.45;;;16.00;99.90;;;;;;5082823;28;20484;-70
2021/09/22 09:11:57;;;;;;;40.50;27.58;;;16.10;99.90;;;;;;5071877;28;20044;-69
2021/09/22 09:14:23;;;;;;;42.60;27.33;;;16.10;99.90;;;;;;5073335;28;20047;-70
2021/09/22 09:16:49;;;;;;;45.20;28.55;;;16.10;99.90;;;;;;5072933;28;20045;-70
2021/09/22 09:19:16;;;;;;;38.25;25.98;;;16.20;99.90;;;;;;5071736;28;20123;-70
2021/09/22 09:21:56;;;;;;;42.72;27.42;;;16.20;99.90;;;;;;5073374;28;20097;-70
2021/09/22 09:24:42;;;;;;;40.53;25.00;;;16.30;99.90;;;;;;5073188;28;20075;-70
2021/09/22 09:27:11;;;;;;;42.38;26.95;;;16.30;99.90;;;;;;5071744;28;20048;-69
2021/09/22 09:29:40;;;;;;;42.80;28.42;;;16.30;99.90;;;;;;5072775;28;20079;-69
2021/09/22 09:32:13;;;;;;;39.03;27.15;;;16.40;99.90;;;;;;5073147;28;20044;-67
2021/09/22 09:35:09;;;;;;;44.83;28.65;;;16.50;99.90;;;;;;5076859;28;20152;-67
2021/09/22 09:37:39;;;;;;;41.67;28.20;;;16.50;99.90;;;;;;5077275;28;20044;-67
2021/09/22 09:40:20;;;;;;;46.50;28.23;;;16.50;99.90;;;;;;5075481;28;20044;-67
2021/09/22 09:42:48;;;;;;;48.88;29.40;;;16.60;99.90;;;;;;5077414;28;20112;-67
2021/09/22 09:45:14;;;;;;;45.75;29.75;;;16.70;99.90;;;;;;5076865;28;20488;-67
2021/09/22 09:47:41;;;;;;;44.22;28.83;;;16.80;99.90;;;;;;5075702;28;20056;-67
2021/09/22 09:50:21;;;;;;;52.42;31.90;;;17.00;99.90;;;;;;5076441;28;20079;-67
2021/09/22 09:52:56;;;;;;;45.22;30.58;;;17.20;99.90;;;;;;5076943;28;20068;-67
2021/09/22 09:55:23;;;;;;;50.47;31.55;;;17.20;99.90;;;;;;5075407;28;20438;-67
2021/09/22 09:57:53;;;;;;;49.55;30.95;;;17.20;99.90;;;;;;5076600;28;20036;-67
2021/09/22 10:00:25;;;;;;;49.58;31.42;;;17.20;99.90;;;;;;5076415;28;20385;-67
2021/09/22 10:02:52;;;;;;;47.80;30.33;;;17.20;99.90;;;;;;5075468;28;20052;-67
2021/09/22 10:05:18;;;;;;;45.78;28.88;;;17.30;99.90;;;;;;5076700;28;20067;-67
2021/09/22 10:07:47;;;;;;;48.80;31.85;;;17.30;99.90;;;;;;5076513;28;20040;-66
2021/09/22 10:10:12;;;;;;;53.53;31.92;;;17.50;99.90;;;;;;5076043;28;20046;-67
2021/09/22 10:12:40;;;;;;;47.05;31.23;;;17.60;99.90;;;;;;5076503;28;20044;-67
2021/09/22 10:15:07;;;;;;;50.13;31.83;;;17.80;99.90;;;;;;5076462;28;20052;-67
2021/09/22 10:17:34;;;;;;;47.55;30.63;;;17.80;99.90;;;;;;5076144;28;20093;-67
2021/09/22 10:20:00;;;;;;;47.63;31.80;;;17.90;99.90;;;;;;5074760;28;20393;-66
2021/09/22 10:22:26;;;;;;;49.28;32.47;;;17.90;99.90;;;;;;5074936;28;20044;-66
2021/09/22 10:24:52;;;;;;;50.63;33.30;;;17.90;99.90;;;;;;5076167;28;20040;-67
2021/09/22 10:27:20;;;;;;;47.22;30.17;;;17.90;99.90;;;;;;5075027;28;20044;-67
2021/09/22 10:30:02;;;;;;;49.97;31.63;;;18.00;99.90;;;;;;5075668;28;20401;-67
2021/09/22 10:32:40;;;;;;;49.47;32.22;;;18.00;99.90;;;;;;5076127;28;20110;-67
2021/09/22 10:35:24;;;;;;;49.53;31.73;;;18.20;99.90;;;;;;5076425;28;20102;-67
2021/09/22 10:37:50;;;;;;;48.45;31.35;;;18.30;99.90;;;;;;5074571;28;20489;-67
2021/09/22 10:40:17;;;;;;;47.97;32.08;;;18.20;99.90;;;;;;5074531;28;20044;-67
2021/09/22 10:42:44;;;;;;;45.67;30.55;;;18.30;99.90;;;;;;5076035;28;20032;-66
2021/09/22 10:45:21;;;;;;;46.85;30.80;;;18.30;99.90;;;;;;5074005;28;20044;-67
2021/09/22 10:47:50;;;;;;;45.38;30.38;;;18.20;99.90;;;;;;5076092;28;20051;-69
2021/09/22 10:50:40;;;;;;;44.40;28.92;;;18.20;99.90;;;;;;5075454;28;20078;-70
2021/09/22 10:53:42;;;;;;;40.40;25.98;;;18.30;99.90;;;;;;5075648;28;20492;-70
2021/09/22 10:56:16;;;;;;;34.38;24.38;;;18.40;99.90;;;;;;5063806;28;20068;-67
2021/09/22 10:58:56;;;;;;;33.65;22.70;;;18.40;99.90;;;;;;5074066;28;20052;-66
2021/09/22 11:01:45;;;;;;;36.05;22.23;;;18.40;99.90;;;;;;5076266;28;20037;-67
2021/09/22 11:04:12;;;;;;;31.70;20.40;;;18.50;99.90;;;;;;5071467;28;20060;-71
2021/09/22 11:06:44;;;;;;;33.70;20.75;;;18.60;99.90;;;;;;5074249;28;20044;-71
2021/09/22 11:09:12;;;;;;;30.83;19.13;;;18.70;99.90;;;;;;5073668;28;20049;-71
2021/09/22 11:11:57;;;;;;;27.48;18.85;;;18.80;99.90;;;;;;5074015;28;20381;-71
2021/09/22 11:14:40;;;;;;;29.13;17.90;;;18.80;99.90;;;;;;5073894;28;20048;-71
2021/09/22 11:17:15;;;;;;;24.15;16.65;;;18.90;99.90;;;;;;5074376;28;20385;-71
2021/09/22 11:19:43;;;;;;;28.45;16.83;;;18.90;99.90;;;;;;5075081;28;20081;-71
2021/09/22 11:22:11;;;;;;;30.67;17.80;;;19.00;99.90;;;;;;5075057;28;20128;-71
2021/09/22 11:24:40;;;;;;;25.17;16.40;;;19.00;99.90;;;;;;5073869;28;20048;-71
2021/09/22 11:27:09;;;;;;;25.02;15.35;;;19.20;99.90;;;;;;5075281;28;20511;-71
2021/09/22 11:29:48;;;;;;;24.90;15.60;;;19.20;99.90;;;;;;5073395;28;20041;-71
2021/09/22 11:32:31;;;;;;;21.80;15.25;;;19.20;99.90;;;;;;5075189;28;20043;-71
2021/09/22 11:35:10;;;;;;;20.80;14.48;;;19.30;99.90;;;;;;5075560;28;20072;-71
2021/09/22 11:37:46;;;;;;;21.85;15.95;;;19.30;99.90;;;;;;5074692;28;20392;-71
2021/09/22 11:40:32;;;;;;;23.73;16.92;;;19.30;99.90;;;;;;5073385;28;20043;-71
2021/09/22 11:43:06;;;;;;;24.27;16.77;;;19.30;99.90;;;;;;5072840;28;20545;-71
2021/09/22 11:45:47;;;;;;;21.00;15.05;;;19.20;99.90;;;;;;5074965;28;20044;-71
2021/09/22 11:48:23;;;;;;;21.25;15.55;;;19.10;99.90;;;;;;5074522;28;20076;-71
2021/09/22 11:50:49;;;;;;;19.08;15.52;;;19.10;99.90;;;;;;5074366;28;20044;-71
2021/09/22 11:53:20;;;;;;;18.80;14.00;;;19.00;99.90;;;;;;5073145;28;20052;-73
2021/09/22 11:55:48;;;;;;;23.40;15.55;;;19.00;99.90;;;;;;5074284;28;20044;-71
2021/09/22 11:58:23;;;;;;;21.77;15.55;;;19.10;99.90;;;;;;5073618;28;20076;-71
2021/09/22 12:00:51;;;;;;;23.75;15.82;;;19.30;99.90;;;;;;5073134;28;20453;-71
2021/09/22 12:03:22;;;;;;;23.90;15.55;;;19.40;99.90;;;;;;5072941;28;20056;-71
2021/09/22 12:06:17;;;;;;;21.88;15.27;;;19.40;99.90;;;;;;5072897;28;20055;-71
2021/09/22 12:08:46;;;;;;;24.48;15.25;;;19.30;99.90;;;;;;5074049;28;20040;-72
2021/09/22 12:11:16;;;;;;;20.67;14.68;;;19.30;99.90;;;;;;5056906;28;20120;-71
2021/09/22 12:13:50;;;;;;;21.05;14.13;;;19.30;99.90;;;;;;5074137;28;20043;-71
2021/09/22 12:16:21;;;;;;;23.15;13.80;;;19.40;99.90;;;;;;5072642;28;20413;-71
2021/09/22 12:18:52;;;;;;;21.98;13.77;;;19.40;99.90;;;;;;5074022;28;20124;-72
2021/09/22 12:21:21;;;;;;;22.65;14.00;;;19.40;99.90;;;;;;5072481;28;20100;-71
2021/09/22 12:23:47;;;;;;;19.88;12.45;;;19.50;99.90;;;;;;5074255;28;20036;-71
2021/09/22 12:26:15;;;;;;;19.20;12.70;;;19.60;99.90;;;;;;5073975;28;20045;-71
2021/09/22 12:28:42;;;;;;;21.30;12.25;;;19.80;99.90;;;;;;5072750;28;20056;-71
2021/09/22 12:31:20;;;;;;;16.77;10.85;;;19.80;99.90;;;;;;5073655;28;20040;-71